createdAt,value
2022-08-01T00:00:21.335Z,61.96
2022-08-01T00:05:22.641Z,62.68
2022-08-01T00:10:23.766Z,62.98
2022-08-01T00:15:24.872Z,62.55
2022-08-01T00:20:26.997Z,62.45
2022-08-01T00:25:33.708Z,62.05
2022-08-01T00:30:27.062Z,61.85
2022-08-01T00:35:30.197Z,62.78
2022-08-01T00:40:27.321Z,62.94
2022-08-01T00:45:28.440Z,65.23
2022-08-01T00:50:30.608Z,66.17
2022-08-01T00:55:30.735Z,66.17
2022-08-01T01:00:29.940Z,67.30
2022-08-01T01:05:29.641Z,69.06
2022-08-01T01:10:30.772Z,68.96
2022-08-01T01:15:31.883Z,70.26
2022-08-01T01:20:33.003Z,70.56
2022-08-01T01:25:34.131Z,70.66
2022-08-01T01:30:35.362Z,70.49
2022-08-01T01:35:37.477Z,71.33
2022-08-01T01:40:37.612Z,72.53
2022-08-01T01:45:36.733Z,72.53
2022-08-01T01:50:37.848Z,74.16
2022-08-01T01:55:49.613Z,74.43
2022-08-01T02:00:38.924Z,74.00
2022-08-01T02:05:40.052Z,75.84
2022-08-01T02:10:42.158Z,76.28
2022-08-01T02:16:00.049Z,76.91
2022-08-01T02:20:41.179Z,77.01
2022-08-01T02:26:08.600Z,77.72
2022-08-01T02:30:42.203Z,79.22
2022-08-01T02:36:31.475Z,79.55
2022-08-01T02:40:45.489Z,79.36
2022-08-01T02:45:44.589Z,80.90
2022-08-01T02:50:45.710Z,79.69
2022-08-01T02:55:47.811Z,80.63
2022-08-01T03:00:48.531Z,81.24
2022-08-01T03:05:47.711Z,81.44
2022-08-01T03:10:48.868Z,80.94
2022-08-01T03:15:50.045Z,80.57
2022-08-01T03:20:52.207Z,81.68
2022-08-01T03:25:52.317Z,81.38
2022-08-01T03:30:51.444Z,82.32
2022-08-01T03:35:52.554Z,81.38
2022-08-01T03:40:53.654Z,81.98
2022-08-01T03:45:55.789Z,82.42
2022-08-01T03:50:55.889Z,83.57
2022-08-01T03:55:56.081Z,83.12
2022-08-01T04:00:56.303Z,84.57
2022-08-01T04:05:55.417Z,84.81
2022-08-01T04:10:57.533Z,85.52
2022-08-01T04:15:56.644Z,85.96
2022-08-01T04:20:57.768Z,85.62
2022-08-01T04:25:59.113Z,86.16
2022-08-01T04:31:01.997Z,85.86
2022-08-01T04:36:01.631Z,86.06
2022-08-01T04:40:59.365Z,86.16
2022-08-01T04:45:59.335Z,85.92
2022-08-01T04:50:59.434Z,84.88
2022-08-01T04:56:01.556Z,84.88
2022-08-01T05:01:00.711Z,84.77
2022-08-01T05:06:02.834Z,84.33
2022-08-01T05:11:02.950Z,84.33
2022-08-01T05:16:02.038Z,82.64
2022-08-01T05:21:03.161Z,80.90
2022-08-01T05:26:05.266Z,82.26
2022-08-01T05:31:05.099Z,80.15
2022-08-01T05:36:06.196Z,78.74
2022-08-01T05:41:07.303Z,80.68
2022-08-01T05:46:09.417Z,80.04
2022-08-01T05:51:08.521Z,78.91
2022-08-01T05:56:09.629Z,80.35
2022-08-01T06:01:10.760Z,78.67
2022-08-01T06:06:11.881Z,75.16
2022-08-01T06:11:13.991Z,70.32
2022-08-01T06:16:14.115Z,69.39
2022-08-01T06:21:13.231Z,67.76
2022-08-01T06:26:14.349Z,68.56
2022-08-01T06:31:16.456Z,65.84
2022-08-01T06:36:15.608Z,64.22
2022-08-01T06:41:16.752Z,63.66
2022-08-01T06:46:17.902Z,61.34
2022-08-01T06:51:20.051Z,62.46
2022-08-01T06:56:19.154Z,59.55
2022-08-01T07:01:22.280Z,60.97
2022-08-01T07:06:22.391Z,62.69
2022-08-01T07:11:22.509Z,61.07
2022-08-01T07:16:21.608Z,58.53
2022-08-01T07:21:39.943Z,59.25
2022-08-01T07:26:23.697Z,59.65
2022-08-01T07:31:29.430Z,58.90
2022-08-01T07:36:25.760Z,57.68
2022-08-01T07:41:52.945Z,57.18
2022-08-01T07:46:28.842Z,57.68
2022-08-01T07:51:28.968Z,58.44
2022-08-01T07:56:29.340Z,54.45
2022-08-01T08:01:27.528Z,57.92
2022-08-01T08:06:28.658Z,55.09
2022-08-01T08:11:30.756Z,57.00
2022-08-01T08:16:30.873Z,57.14
2022-08-01T08:21:30.996Z,56.40
2022-08-01T08:26:31.105Z,57.86
2022-08-01T08:31:51.443Z,56.05
2022-08-01T08:36:32.142Z,55.70
2022-08-01T08:41:36.977Z,56.97
2022-08-01T08:46:31.230Z,56.68
2022-08-01T08:51:32.364Z,56.52
2022-08-01T08:56:33.494Z,57.61
2022-08-01T09:01:36.631Z,57.27
2022-08-01T09:06:35.733Z,57.59
2022-08-01T09:11:36.827Z,57.37
2022-08-01T09:16:37.970Z,56.82
2022-08-01T09:21:40.071Z,53.63
2022-08-01T09:26:40.216Z,54.59
2022-08-01T09:31:38.793Z,54.44
2022-08-01T09:36:39.888Z,54.29
2022-08-01T09:41:47.011Z,54.49
2022-08-01T09:46:44.131Z,54.02
2022-08-01T09:52:00.306Z,53.53
2022-08-01T09:56:44.205Z,54.35
2022-08-01T10:01:43.719Z,54.56
2022-08-01T10:06:44.280Z,54.36
2022-08-01T10:11:44.722Z,56.04
2022-08-01T10:16:44.274Z,52.78
2022-08-01T10:21:57.779Z,54.83
2022-08-01T10:26:44.725Z,52.66
2022-08-01T10:31:44.941Z,52.83
2022-08-01T10:36:45.879Z,53.62
2022-08-01T10:41:46.320Z,53.67
2022-08-01T10:46:45.913Z,52.73
2022-08-01T10:51:52.025Z,54.68
2022-08-01T10:56:45.023Z,53.99
2022-08-01T11:01:46.214Z,52.91
2022-08-01T11:06:46.358Z,53.15
2022-08-01T11:11:47.893Z,52.48
2022-08-01T11:16:47.118Z,52.68
2022-08-01T11:21:58.819Z,53.08
2022-08-01T11:26:48.773Z,53.78
2022-08-01T11:31:46.301Z,53.94
2022-08-01T11:37:03.269Z,51.12
2022-08-01T11:41:46.418Z,52.33
2022-08-01T11:46:47.677Z,52.56
2022-08-01T11:51:49.909Z,54.21
2022-08-01T11:56:49.007Z,52.43
2022-08-01T12:01:51.243Z,52.80
2022-08-01T12:06:51.040Z,51.07
2022-08-01T12:11:52.188Z,51.52
2022-08-01T12:16:53.291Z,51.03
2022-08-01T12:21:56.131Z,54.70
2022-08-01T12:26:55.298Z,53.54
2022-08-01T12:31:58.422Z,53.88
2022-08-01T12:36:58.527Z,50.44
2022-08-01T12:41:58.648Z,49.92
2022-08-01T12:46:57.759Z,49.43
2022-08-01T12:51:58.915Z,49.75
2022-08-01T12:57:01.075Z,49.33
2022-08-01T13:02:00.311Z,49.52
2022-08-01T13:07:01.562Z,50.02
2022-08-01T13:12:04.195Z,48.69
2022-08-01T13:17:03.836Z,49.43
2022-08-01T13:22:03.734Z,49.50
2022-08-01T13:27:05.385Z,48.79
2022-08-01T13:32:05.120Z,48.59
2022-08-01T13:37:05.722Z,48.59
2022-08-01T13:42:06.124Z,48.96
2022-08-01T13:47:15.221Z,48.74
2022-08-01T13:52:05.576Z,48.86
2022-08-01T13:57:06.763Z,46.53
2022-08-01T14:02:08.499Z,48.47
2022-08-01T14:07:10.560Z,47.19
2022-08-01T14:12:07.166Z,47.80
2022-08-01T14:17:10.049Z,47.51
2022-08-01T14:22:09.576Z,48.05
2022-08-01T14:27:11.812Z,46.06
2022-08-01T14:32:11.982Z,44.81
2022-08-01T14:37:11.120Z,45.36
2022-08-01T14:42:12.280Z,44.57
2022-08-01T14:47:16.089Z,46.20
2022-08-01T14:52:14.621Z,43.08
2022-08-01T14:57:15.765Z,43.27
2022-08-01T15:02:17.935Z,44.79
2022-08-01T15:07:17.122Z,44.33
2022-08-01T15:12:18.254Z,43.35
2022-08-01T15:17:19.435Z,44.26
2022-08-01T15:22:19.027Z,43.76
2022-08-01T15:27:20.140Z,43.08
2022-08-01T15:32:21.429Z,44.09
2022-08-01T15:37:27.564Z,41.00
2022-08-01T15:42:26.873Z,43.43
2022-08-01T15:47:22.698Z,43.82
2022-08-01T15:52:22.008Z,40.60
2022-08-01T15:57:23.078Z,39.27
2022-08-01T16:02:22.250Z,40.21
2022-08-01T16:07:25.396Z,43.79
2022-08-01T16:12:24.548Z,40.78
2022-08-01T16:17:25.709Z,40.09
2022-08-01T16:22:29.850Z,41.27
2022-08-01T16:27:27.362Z,41.25
2022-08-01T16:32:31.637Z,38.09
2022-08-01T16:37:27.487Z,37.52
2022-08-01T16:42:29.583Z,42.00
2022-08-01T16:47:31.717Z,40.29
2022-08-01T16:52:29.690Z,40.08
2022-08-01T16:57:29.806Z,39.47
2022-08-01T17:02:31.036Z,41.69
2022-08-01T17:07:30.173Z,46.07
2022-08-01T17:12:30.350Z,44.82
2022-08-01T17:17:32.468Z,43.67
2022-08-01T17:22:31.601Z,47.94
2022-08-01T17:27:32.777Z,49.48
2022-08-01T17:32:33.872Z,46.70
2022-08-01T17:37:37.017Z,47.30
2022-08-01T17:42:37.144Z,49.53
2022-08-01T17:47:50.359Z,49.21
2022-08-01T17:52:36.222Z,52.38
2022-08-01T17:57:37.338Z,52.21
2022-08-01T18:02:39.485Z,55.83
2022-08-01T18:08:01.133Z,55.79
2022-08-01T18:12:38.812Z,55.24
2022-08-01T18:17:39.345Z,55.47
2022-08-01T18:22:38.677Z,55.69
2022-08-01T18:28:16.311Z,57.58
2022-08-01T18:32:42.755Z,56.38
2022-08-01T18:37:43.490Z,57.89
2022-08-01T18:42:41.958Z,56.38
2022-08-01T18:47:43.102Z,58.09
2022-08-01T18:52:47.266Z,60.77
2022-08-01T18:57:44.457Z,62.58
2022-08-01T19:02:46.643Z,63.45
2022-08-01T19:08:05.337Z,64.14
2022-08-01T19:12:45.786Z,63.18
2022-08-01T19:17:46.505Z,62.95
2022-08-01T19:22:45.732Z,62.98
2022-08-01T19:27:47.852Z,63.70
2022-08-01T19:32:49.142Z,64.70
2022-08-01T19:37:48.309Z,64.30
2022-08-01T19:42:49.468Z,64.76
2022-08-01T19:47:51.018Z,66.15
2022-08-01T19:52:50.662Z,68.07
2022-08-01T19:58:10.488Z,67.87
2022-08-01T20:02:51.926Z,70.88
2022-08-01T20:07:53.065Z,67.83
2022-08-01T20:12:54.394Z,66.91
2022-08-01T20:17:55.615Z,66.85
2022-08-01T20:22:56.825Z,66.58
2022-08-01T20:27:57.969Z,67.07
2022-08-01T20:33:00.080Z,78.03
2022-08-01T20:38:06.298Z,84.71
2022-08-01T20:42:59.584Z,90.39
2022-08-01T20:48:00.756Z,90.83
2022-08-01T20:53:01.872Z,92.28
2022-08-01T20:58:03.414Z,92.52
2022-08-01T21:03:02.642Z,91.08
2022-08-01T21:08:05.768Z,85.49
2022-08-01T21:13:06.878Z,85.05
2022-08-01T21:18:06.027Z,83.71
2022-08-01T21:23:07.142Z,83.45
2022-08-01T21:28:08.271Z,83.25
2022-08-01T21:33:09.442Z,81.65
2022-08-01T21:38:10.545Z,82.75
2022-08-01T21:43:11.989Z,81.83
2022-08-01T21:48:12.169Z,89.78
2022-08-01T21:53:13.292Z,88.71
2022-08-01T21:58:15.206Z,86.82
2022-08-01T22:03:14.316Z,88.17
2022-08-01T22:08:17.421Z,91.28
2022-08-01T22:13:17.544Z,94.18
2022-08-01T22:18:16.719Z,96.04
2022-08-01T22:23:17.873Z,95.20
2022-08-01T22:28:18.995Z,95.80
2022-08-01T22:33:20.146Z,96.35
2022-08-01T22:38:22.285Z,94.39
2022-08-01T22:43:20.464Z,95.10
2022-08-01T22:48:21.571Z,93.03
2022-08-01T22:53:23.685Z,94.79
2022-08-01T22:58:22.824Z,96.14
2022-08-01T23:03:23.940Z,94.63
2022-08-01T23:08:27.054Z,94.93
2022-08-01T23:13:26.153Z,97.04
2022-08-01T23:18:27.263Z,93.33
2022-08-01T23:23:30.629Z,92.63
2022-08-01T23:28:29.225Z,91.58
2022-08-01T23:33:28.367Z,90.98
2022-08-01T23:38:29.484Z,92.77
2022-08-01T23:43:30.622Z,98.14
2022-08-01T23:48:31.745Z,99.80
2022-08-01T23:53:32.868Z,99.99
2022-08-01T23:58:32.370Z,99.80
